Time;durP1;ratioP1;P1;durP2;ratioP2;P2;SDS_P1;SDS_P2;PMS_P1;PMS_P2;Temp;Humidity;BMP_temperature;BMP_pressure;BME280_temperature;BME280_humidity;BME280_pressure;Samples;Min_cycle;Max_cycle;Signal;HPM_P1;HPM_P2
2023/12/04 00:01:32;;;;;;;11.90;9.10;;;;;;;1.21;100.00;101117.32;105925;1251;62233;-77
2023/12/04 00:04:01;;;;;;;13.30;9.80;;;;;;;1.17;100.00;101111.17;105885;1251;73300;-78
2023/12/04 00:06:28;;;;;;;11.00;7.60;;;;;;;1.12;100.00;101101.42;105942;1257;60510;-77
2023/12/04 00:08:57;;;;;;;9.90;8.00;;;;;;;1.07;100.00;101116.29;105928;1251;60543;-76
2023/12/04 00:11:24;;;;;;;8.60;7.40;;;;;;;1.04;100.00;101128.05;105965;1256;74094;-78
2023/12/04 00:13:52;;;;;;;11.80;7.90;;;;;;;1.01;100.00;101127.38;105910;1256;63861;-78
2023/12/04 00:16:19;;;;;;;10.30;7.70;;;;;;;1.01;100.00;101136.33;105960;1256;72627;-78
2023/12/04 00:18:46;;;;;;;10.30;8.00;;;;;;;1.00;100.00;101131.00;105852;1251;60517;-79
2023/12/04 00:21:14;;;;;;;9.90;8.00;;;;;;;1.00;100.00;101132.39;106197;1256;60485;-80
2023/12/04 00:23:40;;;;;;;10.30;7.60;;;;;;;1.00;100.00;101138.25;105954;1256;73773;-80
2023/12/04 00:26:08;;;;;;;11.00;8.10;;;;;;;0.97;100.00;101139.67;105886;1251;61895;-78
2023/12/04 00:28:39;;;;;;;9.70;8.30;;;;;;;0.94;100.00;101141.59;105916;1251;72642;-79
2023/12/04 00:31:06;;;;;;;11.40;7.80;;;;;;;0.93;100.00;101137.63;105968;1256;61300;-78
2023/12/04 00:33:34;;;;;;;11.30;7.90;;;;;;;0.94;100.00;101142.28;105923;1251;60514;-78
2023/12/04 00:36:01;;;;;;;11.00;8.80;;;;;;;0.95;100.00;101150.18;105863;1251;73934;-78
2023/12/04 00:38:28;;;;;;;9.50;7.50;;;;;;;0.94;100.00;101150.20;105880;1257;63552;-78
2023/12/04 00:40:55;;;;;;;9.60;7.20;;;;;;;0.92;100.00;101157.62;105855;1256;72573;-78
2023/12/04 00:43:22;;;;;;;11.90;8.30;;;;;;;0.90;100.00;101164.55;105827;1256;61255;-78
2023/12/04 00:45:49;;;;;;;13.30;9.10;;;;;;;0.88;100.00;101163.87;105807;1254;60629;-79
2023/12/04 00:48:16;;;;;;;10.90;7.60;;;;;;;0.86;100.00;101167.50;105915;1251;72657;-79
2023/12/04 00:50:43;;;;;;;9.80;6.80;;;;;;;0.83;100.00;101172.70;105837;1256;61376;-78
2023/12/04 00:53:10;;;;;;;11.40;8.10;;;;;;;0.80;100.00;101161.37;105766;1257;72662;-78
2023/12/04 00:55:37;;;;;;;14.20;9.00;;;;;;;0.78;100.00;101165.86;105918;1256;61255;-78
2023/12/04 00:58:05;;;;;;;10.40;7.10;;;;;;;0.77;100.00;101151.94;105770;1251;60601;-78
2023/12/04 01:00:32;;;;;;;13.50;8.70;;;;;;;0.77;100.00;101138.52;105946;1253;72844;-78
2023/12/04 01:02:59;;;;;;;10.40;7.80;;;;;;;0.76;100.00;101147.31;105950;1256;63858;-78
2023/12/04 01:05:26;;;;;;;8.20;6.60;;;;;;;0.77;100.00;101151.42;105915;1255;72622;-80
2023/12/04 01:07:53;;;;;;;12.30;9.60;;;;;;;0.79;100.00;101144.17;105970;1251;60491;-79
2023/12/04 01:10:21;;;;;;;11.40;8.00;;;;;;;0.83;100.00;101145.51;106251;1251;60539;-78
2023/12/04 01:12:48;;;;;;;15.50;9.30;;;;;;;0.85;100.00;101140.67;105921;1256;73697;-79
2023/12/04 01:15:15;;;;;;;13.00;8.60;;;;;;;0.83;100.00;101143.27;105877;1256;62917;-80
2023/12/04 01:17:42;;;;;;;12.00;9.00;;;;;;;0.82;100.00;101145.34;105977;1256;72556;-80
2023/12/04 01:20:09;;;;;;;14.10;9.80;;;;;;;0.83;100.00;101147.39;105973;1255;60968;-81
2023/12/04 01:22:37;;;;;;;11.60;8.40;;;;;;;0.83;100.00;101157.23;105932;1251;60494;-80
2023/12/04 01:25:04;;;;;;;11.50;8.70;;;;;;;0.81;100.00;101150.69;105841;1255;73637;-78
2023/12/04 01:27:35;;;;;;;11.10;8.10;;;;;;;0.79;100.00;101154.84;105773;1255;63754;-77
2023/12/04 01:30:02;;;;;;;12.00;8.50;;;;;;;0.77;100.00;101157.97;105867;1256;72441;-80
2023/12/04 01:32:29;;;;;;;12.60;8.70;;;;;;;0.80;100.00;101159.65;105955;1256;61283;-79
2023/12/04 01:34:56;;;;;;;12.60;9.00;;;;;;;0.84;100.00;101167.17;105778;1251;60540;-78
2023/12/04 01:37:23;;;;;;;14.50;10.10;;;;;;;0.85;100.00;101169.93;106002;1251;74543;-78
2023/12/04 01:39:50;;;;;;;10.70;9.10;;;;;;;0.83;100.00;101184.56;105861;1251;62501;-79
2023/12/04 01:42:17;;;;;;;12.00;8.30;;;;;;;0.81;100.00;101191.48;105878;1256;72631;-78
2023/12/04 01:44:44;;;;;;;12.20;8.30;;;;;;;0.80;100.00;101196.30;105846;1256;61211;-79
2023/12/04 01:47:11;;;;;;;10.80;8.50;;;;;;;0.79;100.00;101196.83;105805;1251;60606;-78
2023/12/04 01:49:38;;;;;;;10.70;8.10;;;;;;;0.76;100.00;101185.34;105866;1251;72463;-81
2023/12/04 01:52:05;;;;;;;9.80;8.00;;;;;;;0.75;100.00;101189.98;105955;1251;63810;-79
2023/12/04 01:54:33;;;;;;;12.40;8.20;;;;;;;0.72;100.00;101188.64;106024;1251;72768;-79
2023/12/04 01:57:02;;;;;;;10.80;8.60;;;;;;;0.70;100.00;101195.55;106733;1251;61619;-78
2023/12/04 01:59:28;;;;;;;13.20;8.70;;;;;;;0.72;100.00;101195.88;107137;1251;60425;-80
2023/12/04 02:01:56;;;;;;;12.30;8.50;;;;;;;0.75;100.00;101195.33;105858;1256;73900;-79
2023/12/04 02:04:23;;;;;;;9.30;8.00;;;;;;;0.79;100.00;101195.46;105866;1256;63798;-79
2023/12/04 02:06:51;;;;;;;11.00;7.70;;;;;;;0.82;100.00;101195.42;105838;1259;71361;-81
2023/12/04 02:09:18;;;;;;;12.30;8.40;;;;;;;0.84;100.00;101208.49;105734;1251;61318;-80
2023/12/04 02:11:45;;;;;;;11.10;8.50;;;;;;;0.86;100.00;101202.61;105740;1251;60453;-78
2023/12/04 02:16:38;;;;;;;12.00;8.50;;;;;;;0.90;100.00;101198.95;102737;1291;599427;-79
2023/12/04 02:19:11;;;;;;;12.10;8.90;;;;;;;0.87;100.00;101202.78;104878;1272;61791;-78
2023/12/04 02:21:39;;;;;;;10.20;8.20;;;;;;;0.89;100.00;101202.74;105315;1266;59382;-78
2023/12/04 02:24:07;;;;;;;10.70;8.60;;;;;;;0.88;100.00;101198.80;105925;1272;72190;-77
2023/12/04 02:26:40;;;;;;;13.20;8.40;;;;;;;0.85;100.00;101191.95;107413;1266;63643;-77
2023/12/04 02:29:10;;;;;;;14.60;9.20;;;;;;;0.87;100.00;101187.11;105106;1263;213161;-79
2023/12/04 02:31:39;;;;;;;10.60;7.70;;;;;;;0.92;100.00;101189.98;105261;1265;59886;-79
2023/12/04 02:34:09;;;;;;;13.00;7.60;;;;;;;0.97;100.00;101201.48;105051;1263;59248;-81
2023/12/04 02:42:12;;;;;;;10.70;7.50;;;;;;;0.97;100.00;101211.10;103980;1294;599294;-78
2023/12/04 02:44:40;;;;;;;9.80;7.60;;;;;;;0.92;100.00;101214.79;105600;1273;60894;-78
2023/12/04 02:47:08;;;;;;;14.10;8.60;;;;;;;0.90;100.00;101219.44;105354;1267;60142;-80
2023/12/04 02:49:35;;;;;;;10.50;7.50;;;;;;;0.91;100.00;101222.88;105141;1267;72226;-80
2023/12/04 02:52:03;;;;;;;11.60;8.70;;;;;;;0.89;100.00;101226.69;104951;1270;62360;-80
2023/12/04 02:54:31;;;;;;;10.30;7.70;;;;;;;0.89;100.00;101233.22;104865;1270;71614;-80
2023/12/04 02:56:59;;;;;;;10.80;8.40;;;;;;;0.90;100.00;101240.27;105039;1270;292867;-79
2023/12/04 02:59:27;;;;;;;13.30;8.50;;;;;;;0.92;100.00;101246.63;105012;1268;60043;-79
2023/12/04 03:01:54;;;;;;;12.00;8.90;;;;;;;0.91;100.00;101243.54;104915;1264;72382;-79
2023/12/04 03:04:22;;;;;;;12.50;9.10;;;;;;;0.93;100.00;101246.09;105138;1264;64937;-81
2023/12/04 03:06:50;;;;;;;14.10;10.00;;;;;;;0.94;100.00;101251.25;105038;1266;71355;-78
2023/12/04 03:09:18;;;;;;;12.80;8.60;;;;;;;0.92;100.00;101253.84;104948;1264;59949;-79
2023/12/04 03:11:45;;;;;;;12.30;8.20;;;;;;;0.90;100.00;101266.60;104856;1269;60146;-79
2023/12/04 03:14:13;;;;;;;12.40;8.20;;;;;;;0.86;100.00;101274.89;105148;1264;73213;-80
2023/12/04 03:16:41;;;;;;;11.30;8.30;;;;;;;0.88;100.00;101275.06;105009;1269;62961;-80
2023/12/04 03:19:08;;;;;;;11.60;9.00;;;;;;;0.90;100.00;101276.06;104945;1270;71064;-79
2023/12/04 03:21:36;;;;;;;10.10;7.80;;;;;;;0.90;100.00;101273.67;104956;1264;59684;-79
2023/12/04 03:24:04;;;;;;;13.30;9.10;;;;;;;0.90;100.00;101285.37;104978;1268;60098;-77
2023/12/04 03:26:31;;;;;;;13.30;9.40;;;;;;;0.88;100.00;101282.27;104997;1270;73076;-79
2023/12/04 03:28:59;;;;;;;12.00;8.70;;;;;;;0.86;100.00;101289.36;105152;1274;63603;-79
2023/12/04 03:31:28;;;;;;;11.90;8.60;;;;;;;0.87;100.00;101294.70;104968;1271;72596;-81
2023/12/04 03:33:55;;;;;;;17.10;9.90;;;;;;;0.89;100.00;101293.98;105295;1264;60949;-76
2023/12/04 14:33:33;;;;;;;5.90;5.20;;;;;;;0.08;100.00;101758.08;102967;1291;600811;-78
2023/12/04 14:36:04;;;;;;;5.10;4.60;;;;;;;0.10;100.00;101759.96;105602;1254;59884;-79
2023/12/04 14:38:32;;;;;;;5.60;5.00;;;;;;;0.14;100.00;101763.75;105640;1254;62104;-79
2023/12/04 14:41:00;;;;;;;5.00;4.50;;;;;;;0.15;100.00;101762.89;105370;1254;72165;-78
2023/12/04 14:43:28;;;;;;;5.70;5.20;;;;;;;0.15;100.00;101761.87;105659;1259;63537;-78
2023/12/04 14:45:55;;;;;;;5.60;4.90;;;;;;;0.13;100.00;101759.11;105624;1259;72741;-78
2023/12/04 14:48:23;;;;;;;8.60;5.10;;;;;;;0.11;100.00;101759.12;105511;1254;207696;-79
2023/12/04 14:50:51;;;;;;;9.00;5.90;;;;;;;0.08;100.00;101763.74;105753;1253;62165;-80
2023/12/04 14:53:43;;;;;;;6.40;5.00;;;;;;;0.02;100.00;101765.46;105789;1256;71575;-81
2023/12/04 15:12:38;;;;;;;8.20;6.10;;;;;;;-0.16;100.00;101788.45;105982;1251;73329;-80
2023/12/04 15:20:57;;;;;;;7.10;5.60;;;;;;;-0.26;100.00;101792.71;106161;1254;70881;-80
2023/12/04 15:23:28;;;;;;;6.40;5.60;;;;;;;-0.27;100.00;101793.58;105986;1249;64207;-80
2023/12/04 15:25:56;;;;;;;9.10;6.70;;;;;;;-0.29;100.00;101796.30;105891;1254;71936;-81
2023/12/04 15:28:26;;;;;;;8.10;5.40;;;;;;;-0.33;100.00;101795.95;105964;1254;63779;-79
2023/12/04 15:30:56;;;;;;;6.50;5.50;;;;;;;-0.32;100.00;101794.23;105877;1254;61098;-79
2023/12/04 15:33:26;;;;;;;7.30;5.60;;;;;;;-0.30;100.00;101795.61;105904;1251;75989;-81
2023/12/04 15:35:55;;;;;;;5.90;5.00;;;;;;;-0.25;100.00;101793.23;105982;1253;64539;-79
2023/12/04 15:38:23;;;;;;;5.40;4.70;;;;;;;-0.21;100.00;101793.41;106039;1254;72971;-79
2023/12/04 15:40:51;;;;;;;5.90;4.60;;;;;;;-0.17;100.00;101799.27;106213;1251;59724;-79
2023/12/04 15:43:19;;;;;;;7.20;4.60;;;;;;;-0.20;100.00;101804.94;106154;1251;60750;-77
2023/12/04 15:45:47;;;;;;;7.00;4.90;;;;;;;-0.24;100.00;101807.98;106221;1254;72545;-78
2023/12/04 15:48:14;;;;;;;6.70;5.60;;;;;;;-0.28;100.00;101811.08;105955;1254;66272;-78
2023/12/04 15:50:43;;;;;;;7.50;5.80;;;;;;;-0.34;100.00;101812.77;105987;1250;74029;-79
2023/12/04 15:53:11;;;;;;;7.90;5.50;;;;;;;-0.39;100.00;101816.19;106114;1250;62321;-80
2023/12/04 15:55:38;;;;;;;6.80;5.20;;;;;;;-0.45;100.00;101817.19;105937;1251;60215;-79
2023/12/04 15:58:06;;;;;;;6.40;5.60;;;;;;;-0.49;100.00;101819.41;106000;1250;71773;-79
2023/12/04 16:00:34;;;;;;;6.40;5.80;;;;;;;-0.51;100.00;101817.85;106037;1253;63533;-80
2023/12/04 16:03:02;;;;;;;5.40;4.90;;;;;;;-0.49;100.00;101822.32;105905;1251;75003;-80
2023/12/04 16:05:29;;;;;;;8.00;5.30;;;;;;;-0.49;100.00;101825.41;106041;1252;62491;-80
2023/12/04 16:08:03;;;;;;;5.30;4.70;;;;;;;-0.50;100.00;101823.87;105984;1251;59651;-81
2023/12/04 16:10:33;;;;;;;5.30;4.80;;;;;;;-0.51;100.00;101823.86;105980;1250;72542;-81
2023/12/04 16:13:01;;;;;;;5.60;4.70;;;;;;;-0.54;100.00;101819.90;106004;1251;63655;-80
2023/12/04 16:15:29;;;;;;;5.00;3.90;;;;;;;-0.59;100.00;101817.80;105991;1256;71521;-79
2023/12/04 16:17:57;;;;;;;7.30;5.50;;;;;;;-0.65;100.00;101816.07;106055;1250;62570;-82
2023/12/04 16:20:27;;;;;;;6.70;5.90;;;;;;;-0.67;100.00;101818.98;106062;1251;60203;-79
2023/12/04 16:34:57;;;;;;;6.40;5.40;;;;;;;-0.40;100.00;101824.60;102666;1294;603598;-80
2023/12/04 16:37:28;;;;;;;7.40;5.70;;;;;;;-0.38;100.00;101828.58;105026;1264;60646;-79
2023/12/04 16:39:57;;;;;;;7.00;4.80;;;;;;;-0.36;100.00;101826.85;105708;1259;62029;-81
2023/12/04 16:42:26;;;;;;;7.50;5.80;;;;;;;-0.36;100.00;101822.90;105614;1259;72421;-79
2023/12/04 16:44:53;;;;;;;6.60;5.30;;;;;;;-0.40;100.00;101818.24;106709;1254;63883;-78
2023/12/04 16:47:39;;;;;;;7.00;6.00;;;;;;;-0.42;100.00;101818.58;106150;1254;3049900;-79
2023/12/04 16:50:09;;;;;;;7.50;5.50;;;;;;;-0.37;100.00;101819.46;107850;1254;59785;-79
2023/12/04 16:52:36;;;;;;;5.70;4.70;;;;;;;-0.31;100.00;101817.95;105988;1256;60614;-78
2023/12/04 16:55:10;;;;;;;12.80;7.70;;;;;;;-0.26;100.00;101818.64;105719;1252;73846;-79
2023/12/04 16:57:37;;;;;;;5.20;4.70;;;;;;;-0.21;100.00;101816.78;105900;1256;63572;-78
2023/12/04 17:00:06;;;;;;;7.50;6.40;;;;;;;-0.17;100.00;101811.80;106024;1253;71464;-80
2023/12/04 17:02:36;;;;;;;7.90;5.40;;;;;;;-0.15;100.00;101811.65;105952;1256;59988;-80
2023/12/04 17:05:05;;;;;;;8.70;5.30;;;;;;;-0.14;100.00;101806.31;105834;1256;59625;-78
2023/12/04 17:07:34;;;;;;;8.40;6.10;;;;;;;-0.14;100.00;101807.36;105869;1257;72325;-78
2023/12/04 17:10:07;;;;;;;6.40;5.80;;;;;;;-0.14;100.00;101810.45;105793;1257;64156;-79
2023/12/04 17:12:44;;;;;;;6.90;5.20;;;;;;;-0.18;100.00;101813.02;105751;1256;72382;-80
2023/12/04 17:15:12;;;;;;;6.40;5.20;;;;;;;-0.21;100.00;101806.81;105757;1254;60046;-78
2023/12/04 17:17:41;;;;;;;8.20;6.90;;;;;;;-0.19;100.00;101807.85;105752;1255;61399;-77
2023/12/04 17:20:12;;;;;;;6.50;4.50;;;;;;;-0.21;100.00;101810.42;105726;1257;73066;-78
2023/12/04 17:22:39;;;;;;;6.20;5.20;;;;;;;-0.25;100.00;101812.98;105795;1255;62634;-78
2023/12/04 17:25:07;;;;;;;5.90;4.90;;;;;;;-0.29;100.00;101809.52;105821;1256;72719;-79
2023/12/04 17:27:34;;;;;;;5.60;4.90;;;;;;;-0.30;100.00;101811.08;105903;1257;62428;-78
2023/12/04 17:30:01;;;;;;;6.40;4.80;;;;;;;-0.29;100.00;101813.82;105978;1257;60279;-79
2023/12/04 17:32:29;;;;;;;6.40;5.10;;;;;;;-0.27;100.00;101815.39;105914;1253;74268;-79
2023/12/04 17:35:04;;;;;;;5.40;4.70;;;;;;;-0.25;100.00;101821.75;106459;1254;64192;-78
2023/12/04 17:38:16;;;;;;;8.50;6.70;;;;;;;-0.25;100.00;101822.10;106211;1257;73543;-78
2023/12/04 17:40:48;;;;;;;8.10;6.70;;;;;;;-0.29;100.00;101816.76;106281;1257;61298;-79
2023/12/04 17:43:14;;;;;;;7.00;5.20;;;;;;;-0.31;100.00;101816.23;106255;1254;60597;-79
2023/12/04 17:45:43;;;;;;;7.30;4.70;;;;;;;-0.31;100.00;101816.91;106130;1256;72562;-76
2023/12/04 17:48:10;;;;;;;8.40;5.10;;;;;;;-0.34;100.00;101822.39;106021;1256;64570;-79
2023/12/04 17:50:38;;;;;;;6.10;4.80;;;;;;;-0.34;100.00;101823.08;105887;1257;72420;-78
2023/12/04 17:53:05;;;;;;;5.80;5.00;;;;;;;-0.33;100.00;101826.36;105925;1255;60404;-76
2023/12/04 17:55:33;;;;;;;5.70;4.80;;;;;;;-0.32;100.00;101826.88;105943;1257;60173;-78
2023/12/04 17:58:01;;;;;;;8.20;6.10;;;;;;;-0.31;100.00;101833.92;106100;1254;72778;-78
2023/12/04 18:00:29;;;;;;;7.70;5.60;;;;;;;-0.31;100.00;101830.13;105883;1254;64028;-78
2023/12/04 18:02:56;;;;;;;10.00;5.20;;;;;;;-0.32;100.00;101834.95;105896;1255;70902;-78
2023/12/04 18:05:25;;;;;;;7.40;5.80;;;;;;;-0.29;100.00;101842.69;105936;1257;59673;-79
2023/12/04 18:07:56;;;;;;;6.50;5.40;;;;;;;-0.24;100.00;101850.80;105920;1257;59644;-77
2023/12/04 18:10:28;;;;;;;6.40;5.50;;;;;;;-0.22;100.00;101846.16;106058;1257;72098;-76
2023/12/04 18:12:57;;;;;;;8.70;6.10;;;;;;;-0.18;100.00;101855.63;105824;1260;62734;-78
2023/12/04 18:15:25;;;;;;;7.20;4.90;;;;;;;-0.15;100.00;101863.55;106308;1253;70407;-78
2023/12/04 18:17:52;;;;;;;6.30;4.50;;;;;;;-0.14;100.00;101863.56;106126;1263;61412;-78
2023/12/04 18:20:19;;;;;;;6.70;4.80;;;;;;;-0.12;100.00;101868.03;106264;1251;62057;-78
2023/12/04 18:22:48;;;;;;;7.30;4.50;;;;;;;-0.13;100.00;101861.33;106300;1251;72080;-78
2023/12/04 18:25:17;;;;;;;5.60;4.40;;;;;;;-0.14;100.00;101863.90;106134;1255;61558;-78
2023/12/04 18:27:45;;;;;;;6.30;5.00;;;;;;;-0.18;100.00;101862.84;106228;1251;72631;-79
2023/12/04 18:30:15;;;;;;;6.40;4.70;;;;;;;-0.17;100.00;101851.51;106123;1254;60207;-78
2023/12/04 18:32:43;;;;;;;7.00;4.70;;;;;;;-0.12;100.00;101850.33;106346;1250;61291;-78
2023/12/04 18:35:10;;;;;;;6.30;5.30;;;;;;;-0.09;100.00;101844.48;106120;1254;74857;-79
2023/12/04 18:37:52;;;;;;;5.10;4.20;;;;;;;-0.09;100.00;101851.20;105900;1258;62796;-78
2023/12/04 18:40:19;;;;;;;6.60;5.50;;;;;;;-0.09;100.00;101856.18;105815;1260;73788;-78
2023/12/04 18:42:46;;;;;;;5.90;4.20;;;;;;;-0.07;100.00;101865.14;105703;1258;59832;-79
2023/12/04 18:45:15;;;;;;;9.30;5.30;;;;;;;-0.05;100.00;101869.60;105764;1257;60209;-79
2023/12/04 18:47:47;;;;;;;5.20;4.40;;;;;;;-0.05;100.00;101870.98;105988;1254;71718;-80
2023/12/04 18:50:15;;;;;;;6.80;4.30;;;;;;;-0.04;100.00;101868.06;105979;1253;62570;-78
2023/12/04 18:52:46;;;;;;;6.00;4.90;;;;;;;-0.06;100.00;101865.14;105801;1255;72650;-79
2023/12/04 18:55:20;;;;;;;5.10;4.50;;;;;;;-0.08;100.00;101869.27;105822;1254;62649;-79
2023/12/04 18:57:48;;;;;;;5.30;4.40;;;;;;;-0.09;100.00;101868.91;105917;1257;60636;-79
2023/12/04 19:00:15;;;;;;;6.60;4.70;;;;;;;-0.08;100.00;101867.88;105879;1259;72847;-79
2023/12/04 19:02:43;;;;;;;6.50;5.60;;;;;;;-0.06;100.00;101869.79;105981;1259;64029;-80
2023/12/04 19:05:10;;;;;;;5.00;4.20;;;;;;;-0.04;100.00;101873.05;105785;1255;72560;-80
2023/12/04 19:07:37;;;;;;;8.70;4.90;;;;;;;-0.01;100.00;101870.83;105739;1254;61458;-79
2023/12/04 19:10:05;;;;;;;8.00;5.60;;;;;;;-0.00;100.00;101874.95;106227;1253;60329;-80
2023/12/04 19:12:33;;;;;;;8.80;5.60;;;;;;;0.02;100.00;101876.51;106375;1253;73323;-79
2023/12/04 19:15:00;;;;;;;8.00;5.60;;;;;;;0.04;100.00;101875.14;106221;1252;63356;-79
2023/12/04 19:17:28;;;;;;;8.60;6.20;;;;;;;0.04;100.00;101875.66;106337;1250;72870;-79
2023/12/04 19:19:55;;;;;;;6.20;5.10;;;;;;;0.01;100.00;101872.90;106144;1253;61039;-78
2023/12/04 19:22:23;;;;;;;6.40;5.50;;;;;;;0.04;100.00;101874.11;106208;1251;61271;-80
2023/12/04 19:24:50;;;;;;;6.60;4.90;;;;;;;0.09;100.00;101879.45;106161;1257;74276;-81
2023/12/04 19:27:18;;;;;;;7.00;4.40;;;;;;;0.14;100.00;101880.34;106165;1251;63939;-77
2023/12/04 19:29:45;;;;;;;6.50;4.90;;;;;;;0.18;100.00;101886.02;106032;1250;71236;-81
2023/12/04 19:32:12;;;;;;;7.80;4.50;;;;;;;0.23;100.00;101888.45;106220;1254;61382;-81
2023/12/04 19:34:43;;;;;;;6.50;4.50;;;;;;;0.26;100.00;101882.44;107566;1251;60280;-79
2023/12/04 19:37:10;;;;;;;8.80;5.50;;;;;;;0.26;100.00;101881.23;107836;1250;72019;-80
2023/12/04 19:39:40;;;;;;;7.30;5.60;;;;;;;0.25;100.00;101886.22;107800;1250;61635;-81
2023/12/04 19:42:08;;;;;;;6.30;4.30;;;;;;;0.23;100.00;101884.85;106506;1251;73843;-81
2023/12/04 19:44:35;;;;;;;6.10;5.50;;;;;;;0.21;100.00;101885.00;106358;1255;62220;-80
2023/12/04 19:47:05;;;;;;;9.50;7.20;;;;;;;0.21;100.00;101889.65;106356;1253;59623;-82
2023/12/04 19:49:41;;;;;;;17.10;9.40;;;;;;;0.24;100.00;101892.08;106184;1253;74276;-79
2023/12/04 19:52:09;;;;;;;12.30;9.50;;;;;;;0.28;100.00;101893.10;106331;1253;63192;-81
2023/12/04 19:54:42;;;;;;;17.30;8.80;;;;;;;0.31;100.00;101891.23;106103;1253;70706;-80
2023/12/04 19:57:09;;;;;;;8.50;6.30;;;;;;;0.33;100.00;101893.98;106179;1251;60183;-79
2023/12/04 19:59:37;;;;;;;8.20;5.40;;;;;;;0.36;100.00;101898.98;106718;1253;59628;-80
2023/12/04 20:02:09;;;;;;;7.60;5.10;;;;;;;0.38;100.00;101902.09;106377;1253;72667;-81
2023/12/04 20:04:40;;;;;;;7.50;5.30;;;;;;;0.40;100.00;101905.52;106206;1254;63026;-81
2023/12/04 20:07:08;;;;;;;8.10;6.60;;;;;;;0.42;100.00;101908.11;106084;1251;71170;-80
2023/12/04 20:09:36;;;;;;;9.00;6.30;;;;;;;0.42;100.00;101902.95;106305;1250;59676;-80
2023/12/04 20:12:04;;;;;;;10.20;7.10;;;;;;;0.42;100.00;101898.99;106271;1251;60050;-79
2023/12/04 20:14:31;;;;;;;9.20;6.00;;;;;;;0.38;100.00;101902.09;107273;1253;73152;-79
2023/12/04 20:16:58;;;;;;;7.80;5.90;;;;;;;0.33;100.00;101896.73;106518;1253;64795;-79
2023/12/04 20:19:25;;;;;;;10.30;6.20;;;;;;;0.28;100.00;101894.31;106215;1251;72951;-80
2023/12/04 20:21:52;;;;;;;12.40;7.00;;;;;;;0.28;100.00;101893.45;106109;1253;61043;-82
2023/12/04 20:24:20;;;;;;;10.30;5.80;;;;;;;0.32;100.00;101892.09;106124;1251;60138;-81
2023/12/04 20:26:49;;;;;;;9.50;6.70;;;;;;;0.37;100.00;101888.66;106091;1254;74119;-80
2023/12/04 20:29:16;;;;;;;8.30;6.70;;;;;;;0.41;100.00;101892.11;106209;1251;64980;-81
2023/12/04 20:31:43;;;;;;;9.60;6.00;;;;;;;0.42;100.00;101893.15;106163;1251;73624;-80
2023/12/04 20:34:10;;;;;;;10.00;7.10;;;;;;;0.43;100.00;101897.45;105953;1250;59981;-80
2023/12/04 20:36:39;;;;;;;10.50;7.00;;;;;;;0.44;100.00;101895.73;106045;1250;59603;-82
2023/12/04 20:39:06;;;;;;;14.60;9.80;;;;;;;0.47;100.00;101893.85;106015;1253;70956;-81
2023/12/04 20:41:34;;;;;;;18.20;11.10;;;;;;;0.50;100.00;101898.52;105740;1251;63958;-81
2023/12/04 20:44:01;;;;;;;16.60;9.60;;;;;;;0.49;100.00;101897.97;105973;1251;70230;-80
2023/12/04 20:46:28;;;;;;;20.70;12.10;;;;;;;0.48;100.00;101899.02;106213;1250;62381;-80
2023/12/04 20:48:56;;;;;;;19.20;11.30;;;;;;;0.44;100.00;101898.83;106965;1253;60508;-79
2023/12/04 20:51:23;;;;;;;25.40;13.60;;;;;;;0.43;100.00;101897.45;106052;1250;72068;-78
2023/12/04 20:53:50;;;;;;;27.50;15.30;;;;;;;0.42;100.00;101895.56;105960;1253;64175;-81
2023/12/04 20:56:19;;;;;;;19.70;12.30;;;;;;;0.39;100.00;101893.64;106087;1251;71443;-82
2023/12/04 20:58:46;;;;;;;23.70;14.40;;;;;;;0.38;100.00;101895.55;106065;1253;62451;-81
2023/12/04 21:01:18;;;;;;;26.00;14.50;;;;;;;0.38;100.00;101899.16;106029;1253;60437;-80
2023/12/04 21:03:45;;;;;;;35.60;18.90;;;;;;;0.38;100.00;101893.49;105898;1256;73938;-81
2023/12/04 21:06:13;;;;;;;30.90;17.70;;;;;;;0.37;100.00;101896.39;106182;1253;63995;-79
2023/12/04 21:08:41;;;;;;;33.90;18.50;;;;;;;0.36;100.00;101898.30;106127;1257;72274;-78
2023/12/04 21:11:08;;;;;;;44.50;24.30;;;;;;;0.34;100.00;101900.52;106138;1249;61894;-81
2023/12/04 21:13:35;;;;;;;40.20;23.90;;;;;;;0.32;100.00;101901.73;106015;1251;60414;-80
2023/12/04 21:16:04;;;;;;;41.30;25.00;;;;;;;0.30;100.00;101895.88;106976;1250;73892;-78
2023/12/04 21:18:31;;;;;;;33.50;19.90;;;;;;;0.29;100.00;101892.78;108001;1253;62887;-79
2023/12/04 21:20:58;;;;;;;33.00;22.20;;;;;;;0.28;100.00;101887.09;106580;1250;73183;-80
2023/12/04 21:23:26;;;;;;;32.70;21.10;;;;;;;0.27;100.00;101890.35;106238;1253;60382;-78
2023/12/04 21:25:54;;;;;;;43.60;24.10;;;;;;;0.27;100.00;101892.41;106119;1252;60526;-78
2023/12/04 21:28:21;;;;;;;34.50;22.80;;;;;;;0.29;100.00;101887.62;106311;1253;73772;-77
2023/12/04 21:30:49;;;;;;;28.30;19.60;;;;;;;0.30;100.00;101889.67;106212;1252;63868;-79
2023/12/04 21:33:17;;;;;;;28.90;18.70;;;;;;;0.30;100.00;101890.38;106182;1254;72595;-78
2023/12/04 21:35:44;;;;;;;23.00;13.80;;;;;;;0.29;100.00;101893.45;106425;1253;61246;-76
2023/12/04 21:38:11;;;;;;;21.70;13.70;;;;;;;0.28;100.00;101892.42;106245;1253;60451;-77
2023/12/04 21:40:38;;;;;;;23.90;14.20;;;;;;;0.29;100.00;101886.73;106274;1253;73805;-79
2023/12/04 21:43:05;;;;;;;27.90;14.90;;;;;;;0.30;100.00;101886.75;106024;1253;63812;-79
2023/12/04 21:45:31;;;;;;;26.10;15.10;;;;;;;0.31;100.00;101886.57;106143;1251;72620;-80
2023/12/04 21:47:58;;;;;;;27.50;15.70;;;;;;;0.32;100.00;101891.75;106469;1253;60949;-79
2023/12/04 21:50:26;;;;;;;26.90;15.10;;;;;;;0.34;100.00;101891.92;106902;1250;60425;-75
2023/12/04 21:52:53;;;;;;;18.80;12.10;;;;;;;0.36;100.00;101888.66;107084;1251;73812;-78
2023/12/04 21:55:21;;;;;;;16.10;10.00;;;;;;;0.36;100.00;101888.84;108788;1250;62342;-77
2023/12/04 21:57:48;;;;;;;14.50;9.40;;;;;;;0.37;100.00;101890.89;108888;1250;71303;-76
2023/12/04 22:00:34;;;;;;;18.20;11.60;;;;;;;0.38;100.00;101892.62;107935;1253;60416;-76
2023/12/04 22:03:02;;;;;;;15.90;10.20;;;;;;;0.39;100.00;101895.72;106858;1250;60440;-77
2023/12/04 22:05:29;;;;;;;16.90;11.00;;;;;;;0.37;100.00;101894.85;106448;1254;73868;-78
2023/12/04 22:07:56;;;;;;;20.20;11.90;;;;;;;0.37;100.00;101896.06;106265;1253;63846;-78
2023/12/04 22:10:23;;;;;;;17.80;11.10;;;;;;;0.40;100.00;101897.27;106211;1249;73106;-79
2023/12/04 22:12:50;;;;;;;14.10;9.90;;;;;;;0.42;100.00;101893.33;105898;1251;60641;-79
2023/12/04 22:15:17;;;;;;;19.00;11.80;;;;;;;0.43;100.00;101896.59;106058;1253;60448;-76
2023/12/04 22:17:44;;;;;;;17.80;11.20;;;;;;;0.43;100.00;101894.52;105995;1254;74057;-78
2023/12/04 22:20:12;;;;;;;14.40;10.90;;;;;;;0.45;100.00;101895.56;105914;1250;62583;-79
2023/12/04 22:22:40;;;;;;;14.10;9.30;;;;;;;0.45;100.00;101895.73;106088;1253;72662;-78
2023/12/04 22:25:07;;;;;;;13.80;9.70;;;;;;;0.46;100.00;101891.61;106285;1250;60412;-79
2023/12/04 22:27:34;;;;;;;16.10;9.90;;;;;;;0.46;100.00;101892.13;107228;1250;60319;-77
2023/12/04 22:30:01;;;;;;;16.30;10.70;;;;;;;0.46;100.00;101894.35;106536;1253;73562;-79
2023/12/04 22:32:29;;;;;;;16.30;10.60;;;;;;;0.47;100.00;101890.58;105952;1253;63778;-79
2023/12/04 22:34:56;;;;;;;14.30;9.60;;;;;;;0.48;100.00;101895.04;106059;1253;72905;-78
2023/12/04 22:37:23;;;;;;;16.20;10.60;;;;;;;0.48;100.00;101890.41;105929;1253;60547;-77
2023/12/04 22:39:50;;;;;;;15.70;10.00;;;;;;;0.51;100.00;101892.30;106063;1250;60421;-78
2023/12/04 22:42:17;;;;;;;18.70;10.70;;;;;;;0.53;100.00;101890.76;106021;1253;73673;-76
2023/12/04 22:44:44;;;;;;;16.50;10.80;;;;;;;0.56;100.00;101887.15;106023;1253;63910;-77
2023/12/04 22:47:11;;;;;;;14.50;9.90;;;;;;;0.56;100.00;101889.40;105894;1254;72892;-77
2023/12/04 22:49:38;;;;;;;19.40;12.50;;;;;;;0.56;100.00;101888.36;105977;1250;60549;-78
2023/12/04 22:52:06;;;;;;;16.80;10.10;;;;;;;0.57;100.00;101888.88;106018;1251;60444;-77
2023/12/04 22:54:32;;;;;;;16.90;10.20;;;;;;;0.57;100.00;101888.70;106044;1251;73838;-77